METAR Data
IDs: Format: Raw Decoded Include TAF

Data at: 1612 UTC 03 Dec 2021

KNQX 031553Z 03009KT 10SM CLR 26/17 A3014 RMK AO2 SLP203 T02560172 $